createdAt,value
2023-03-07T00:00:27.837Z,16.50
2023-03-07T00:03:14.998Z,19.70
2023-03-07T00:05:43.939Z,16.40
2023-03-07T00:08:12.223Z,13.60
2023-03-07T00:10:40.196Z,14.70
2023-03-07T00:13:08.999Z,20.80
2023-03-07T00:15:38.107Z,14.00
2023-03-07T00:18:07.479Z,15.30
2023-03-07T00:20:35.644Z,14.70
2023-03-07T00:23:05.352Z,14.90
2023-03-07T00:25:33.348Z,15.20
2023-03-07T00:28:01.456Z,15.60
2023-03-07T00:30:29.824Z,13.90
2023-03-07T00:32:57.960Z,13.50
2023-03-07T00:35:26.092Z,13.00
2023-03-07T00:37:53.943Z,10.80
2023-03-07T00:40:22.112Z,13.80
2023-03-07T00:42:50.493Z,12.30
2023-03-07T00:45:18.636Z,13.20
2023-03-07T00:47:46.933Z,15.40
2023-03-07T00:50:15.550Z,12.20
2023-03-07T00:52:43.990Z,14.20
2023-03-07T00:55:12.457Z,13.00
2023-03-07T00:57:40.642Z,12.50
2023-03-07T01:00:10.939Z,12.10
2023-03-07T01:02:38.898Z,14.60
2023-03-07T01:05:07.165Z,14.70
2023-03-07T01:07:35.652Z,13.50
2023-03-07T01:10:03.750Z,12.00
2023-03-07T01:12:31.655Z,9.40
2023-03-07T01:14:59.725Z,10.80
2023-03-07T01:17:27.958Z,12.50
2023-03-07T01:19:56.638Z,12.30
2023-03-07T01:22:24.930Z,11.80
2023-03-07T01:24:53.245Z,11.90
2023-03-07T01:27:21.596Z,12.20
2023-03-07T01:29:49.769Z,9.40
2023-03-07T01:32:18.417Z,9.10
2023-03-07T01:34:46.430Z,12.00
2023-03-07T01:37:14.583Z,11.00
2023-03-07T01:39:43.154Z,11.10
2023-03-07T01:42:15.693Z,13.10
2023-03-07T01:45:12.267Z,12.50
2023-03-07T01:47:46.399Z,11.20
2023-03-07T01:50:18.148Z,10.70
2023-03-07T01:52:54.165Z,12.20
2023-03-07T01:55:26.287Z,11.40
2023-03-07T01:58:02.686Z,9.80
2023-03-07T02:00:30.948Z,10.60
2023-03-07T02:03:15.154Z,11.80
2023-03-07T02:05:50.237Z,10.50
2023-03-07T02:08:22.357Z,12.90
2023-03-07T02:10:52.134Z,12.00
2023-03-07T02:13:20.529Z,10.40
2023-03-07T02:15:50.308Z,13.30
2023-03-07T02:18:23.199Z,15.70
2023-03-07T02:20:54.263Z,11.40
2023-03-07T02:23:39.447Z,10.60
2023-03-07T02:26:20.093Z,10.30
2023-03-07T02:28:48.315Z,10.30
2023-03-07T02:31:16.866Z,10.60
2023-03-07T02:33:44.761Z,11.60
2023-03-07T02:36:19.612Z,13.00
2023-03-07T02:39:09.319Z,12.90
2023-03-07T02:41:39.637Z,11.70
2023-03-07T02:44:19.866Z,9.40
2023-03-07T02:46:48.162Z,11.40
2023-03-07T02:49:18.028Z,11.20
2023-03-07T02:51:46.458Z,12.40
2023-03-07T02:54:14.506Z,11.50
2023-03-07T02:56:43.045Z,13.50
2023-03-07T02:59:11.414Z,11.20
2023-03-07T03:01:39.723Z,9.80
2023-03-07T03:04:07.745Z,9.90
2023-03-07T03:06:37.244Z,10.70
2023-03-07T03:09:05.328Z,12.90
2023-03-07T03:11:33.668Z,11.10
2023-03-07T03:14:01.876Z,12.30
2023-03-07T03:16:29.985Z,10.00
2023-03-07T03:18:58.090Z,11.00
2023-03-07T03:21:26.903Z,11.70
2023-03-07T03:23:55.172Z,9.10
2023-03-07T03:26:23.512Z,11.40
2023-03-07T03:28:54.453Z,17.70
2023-03-07T03:31:22.607Z,11.00
2023-03-07T03:33:52.564Z,11.50
2023-03-07T03:36:21.763Z,12.00
2023-03-07T03:38:50.009Z,11.10
2023-03-07T03:41:17.937Z,7.70
2023-03-07T03:43:46.616Z,8.70
2023-03-07T03:46:17.101Z,12.70
2023-03-07T03:48:55.108Z,12.20
2023-03-07T03:51:25.335Z,9.50
2023-03-07T03:53:55.154Z,10.40
2023-03-07T03:56:24.976Z,10.90
2023-03-07T03:58:55.640Z,10.10
2023-03-07T04:03:54.546Z,7.60
2023-03-07T04:06:26.289Z,10.50
2023-03-07T04:08:55.159Z,15.40
2023-03-07T04:11:25.026Z,10.80
2023-03-07T04:13:53.786Z,8.60
2023-03-07T04:16:23.013Z,9.40
2023-03-07T04:18:51.669Z,13.20
2023-03-07T04:21:21.060Z,13.90
2023-03-07T04:23:50.834Z,13.10
2023-03-07T04:26:18.951Z,10.20
2023-03-07T04:28:49.074Z,10.50
2023-03-07T04:31:23.863Z,10.60
2023-03-07T04:33:54.242Z,14.30
2023-03-07T04:36:24.283Z,10.70
2023-03-07T04:38:53.101Z,12.50
2023-03-07T04:41:26.149Z,16.10
2023-03-07T04:44:00.879Z,16.10
2023-03-07T04:46:29.278Z,14.60
2023-03-07T04:48:57.331Z,12.80
2023-03-07T04:51:25.952Z,15.40
2023-03-07T04:53:54.135Z,14.80
2023-03-07T04:56:22.424Z,15.20
2023-03-07T04:58:50.647Z,14.90
2023-03-07T05:01:20.164Z,23.10
2023-03-07T05:03:48.734Z,25.70
2023-03-07T05:06:18.710Z,31.90
2023-03-07T05:08:51.867Z,26.80
2023-03-07T05:11:20.997Z,18.40
2023-03-07T05:13:50.446Z,23.10
2023-03-07T05:16:23.176Z,18.70
2023-03-07T05:18:51.709Z,18.20
2023-03-07T05:21:20.440Z,19.20
2023-03-07T05:23:48.329Z,19.20
2023-03-07T05:26:16.659Z,22.70
2023-03-07T05:28:44.696Z,16.90
2023-03-07T05:31:13.350Z,17.90
2023-03-07T05:33:42.722Z,17.00
2023-03-07T05:36:11.316Z,16.70
2023-03-07T05:38:39.951Z,18.00
2023-03-07T05:41:08.305Z,18.30
2023-03-07T05:43:36.800Z,17.80
2023-03-07T05:46:05.282Z,23.30
2023-03-07T05:48:33.730Z,22.50
2023-03-07T05:51:02.576Z,26.60
2023-03-07T05:53:31.347Z,16.70
2023-03-07T05:55:59.891Z,16.30
2023-03-07T05:58:28.648Z,32.40
2023-03-07T06:00:56.876Z,17.10
2023-03-07T06:03:25.570Z,19.10
2023-03-07T06:05:54.029Z,15.30
2023-03-07T06:08:22.113Z,12.50
2023-03-07T06:10:52.039Z,11.70
2023-03-07T06:13:23.221Z,25.60
2023-03-07T06:15:52.848Z,12.80
2023-03-07T06:18:22.480Z,13.80
2023-03-07T06:21:02.472Z,17.50
2023-03-07T06:23:35.148Z,10.50
2023-03-07T06:26:04.809Z,12.20
2023-03-07T06:28:33.194Z,12.80
2023-03-07T06:31:09.618Z,10.60
2023-03-07T06:33:38.195Z,11.30
2023-03-07T06:36:09.507Z,14.90
2023-03-07T06:38:39.374Z,11.30
2023-03-07T06:41:09.103Z,11.00
2023-03-07T06:43:37.770Z,10.70
2023-03-07T06:46:06.705Z,10.80
2023-03-07T06:48:37.400Z,9.30
2023-03-07T06:51:08.727Z,14.50
2023-03-07T06:53:37.118Z,10.40
2023-03-07T06:56:05.640Z,8.50
2023-03-07T06:58:34.194Z,10.10
2023-03-07T07:01:02.556Z,11.60
2023-03-07T07:03:31.621Z,13.30
2023-03-07T07:05:59.521Z,7.70
2023-03-07T07:08:27.413Z,12.00
2023-03-07T07:10:59.373Z,7.50
2023-03-07T07:13:27.750Z,7.80
2023-03-07T07:15:56.197Z,9.10
2023-03-07T07:18:25.345Z,7.60
2023-03-07T07:20:57.617Z,7.40
2023-03-07T07:23:27.461Z,7.00
2023-03-07T07:25:55.763Z,6.80
2023-03-07T07:28:23.879Z,7.20
2023-03-07T07:30:52.105Z,6.10
2023-03-07T07:33:20.652Z,6.10
2023-03-07T07:35:50.613Z,7.00
2023-03-07T07:38:19.336Z,6.40
2023-03-07T07:40:47.364Z,6.90
2023-03-07T07:43:17.537Z,5.50
2023-03-07T07:45:56.173Z,13.20
2023-03-07T07:48:24.524Z,11.90
2023-03-07T07:50:53.126Z,8.20
2023-03-07T07:53:21.676Z,8.00
2023-03-07T07:55:49.817Z,6.60
2023-03-07T07:58:18.248Z,8.00
2023-03-07T08:00:47.002Z,6.40
2023-03-07T08:03:15.009Z,6.10
2023-03-07T08:05:48.844Z,5.60
2023-03-07T08:08:18.975Z,9.60
2023-03-07T08:10:48.000Z,6.60
2023-03-07T08:13:17.962Z,6.00
2023-03-07T08:15:46.202Z,6.30
2023-03-07T08:18:14.831Z,5.60
2023-03-07T08:20:42.869Z,5.10
2023-03-07T08:23:10.715Z,6.00
2023-03-07T08:25:39.071Z,6.90
2023-03-07T08:28:07.312Z,4.80
2023-03-07T08:30:37.100Z,10.20
2023-03-07T08:33:05.137Z,7.40
2023-03-07T08:35:33.225Z,5.40
2023-03-07T08:38:01.331Z,6.50
2023-03-07T08:40:30.798Z,7.30
2023-03-07T08:42:59.662Z,6.00
2023-03-07T08:45:27.639Z,7.70
2023-03-07T08:47:56.139Z,6.80
2023-03-07T08:50:26.834Z,6.40
2023-03-07T08:52:54.966Z,8.10
2023-03-07T08:55:23.441Z,11.90
2023-03-07T08:57:51.402Z,8.70
2023-03-07T09:00:20.270Z,9.20
2023-03-07T09:02:48.237Z,8.60
2023-03-07T09:05:16.371Z,8.40
2023-03-07T09:07:44.540Z,12.80
2023-03-07T09:10:12.367Z,17.60
2023-03-07T09:12:40.820Z,15.00
2023-03-07T09:15:09.864Z,12.10
2023-03-07T09:17:37.904Z,11.60
2023-03-07T09:20:07.219Z,11.90
2023-03-07T09:22:35.030Z,10.90
2023-03-07T09:25:03.918Z,12.30
2023-03-07T09:27:31.977Z,13.60
2023-03-07T09:29:59.812Z,12.00
2023-03-07T09:32:28.721Z,14.20
2023-03-07T09:34:59.292Z,9.80
2023-03-07T09:37:27.170Z,11.10
2023-03-07T09:39:55.249Z,13.10
2023-03-07T09:42:59.394Z,16.10
2023-03-07T09:45:39.422Z,13.90
2023-03-07T09:48:25.231Z,17.00
2023-03-07T09:50:56.664Z,12.90
2023-03-07T09:53:42.883Z,10.20
2023-03-07T09:56:32.602Z,14.90
2023-03-07T09:59:22.486Z,17.70
2023-03-07T10:02:01.125Z,14.70
2023-03-07T10:04:41.236Z,13.80
2023-03-07T10:07:11.173Z,13.20
2023-03-07T10:09:39.258Z,14.00
2023-03-07T10:12:19.466Z,12.60
2023-03-07T10:14:53.282Z,13.20
2023-03-07T10:17:39.498Z,14.10
2023-03-07T10:20:23.067Z,12.90
2023-03-07T10:23:12.538Z,13.70
2023-03-07T10:25:46.401Z,13.80
2023-03-07T10:28:42.679Z,11.90
2023-03-07T10:31:34.960Z,13.30
2023-03-07T10:34:26.380Z,13.30
2023-03-07T10:37:10.718Z,14.00
2023-03-07T10:39:53.521Z,14.50
2023-03-07T10:42:24.177Z,13.30
2023-03-07T10:47:29.230Z,13.70
2023-03-07T10:50:22.256Z,18.70
2023-03-07T10:52:57.607Z,17.30
2023-03-07T10:55:41.588Z,14.70
2023-03-07T10:58:25.384Z,19.60
2023-03-07T11:01:08.681Z,16.60
2023-03-07T11:03:53.278Z,17.00
2023-03-07T11:06:51.801Z,21.70
2023-03-07T11:09:26.491Z,16.90
2023-03-07T11:11:57.791Z,18.10
2023-03-07T11:14:28.304Z,23.40
2023-03-07T11:17:01.776Z,23.20
2023-03-07T11:19:41.035Z,19.60
2023-03-07T11:22:20.476Z,20.90
2023-03-07T11:25:01.556Z,17.40
2023-03-07T11:27:40.696Z,17.80
2023-03-07T11:30:14.354Z,12.60
2023-03-07T11:32:50.295Z,18.60
2023-03-07T11:35:22.561Z,14.40
2023-03-07T11:38:10.715Z,13.60
2023-03-07T11:40:56.832Z,28.90
2023-03-07T11:43:58.461Z,16.40
2023-03-07T11:46:43.937Z,14.20
2023-03-07T11:49:53.659Z,22.70
2023-03-07T11:52:31.236Z,17.60
2023-03-07T11:55:25.105Z,15.10
2023-03-07T11:58:24.593Z,13.80
2023-03-07T12:00:55.347Z,20.60
2023-03-07T12:05:51.242Z,16.00
2023-03-07T12:08:26.429Z,12.90
2023-03-07T12:11:26.950Z,14.30
2023-03-07T12:14:05.264Z,18.60
2023-03-07T12:16:51.433Z,19.10
2023-03-07T12:19:42.631Z,14.20
2023-03-07T12:22:33.988Z,15.00
2023-03-07T12:25:08.194Z,14.60
2023-03-07T12:27:43.564Z,11.80
2023-03-07T12:30:27.988Z,13.40
2023-03-07T12:32:56.763Z,11.40
2023-03-07T12:35:31.014Z,14.60
2023-03-07T12:38:05.514Z,18.40
2023-03-07T12:40:51.710Z,19.00
2023-03-07T12:43:43.663Z,13.90
2023-03-07T12:46:39.344Z,10.40
2023-03-07T12:49:19.701Z,15.30
2023-03-07T12:51:52.666Z,13.10
2023-03-07T12:54:29.987Z,12.10
2023-03-07T12:57:13.184Z,14.10
2023-03-07T12:59:44.248Z,10.20
2023-03-07T13:02:19.941Z,10.80
2023-03-07T13:04:47.936Z,12.00
2023-03-07T13:07:24.911Z,9.70
2023-03-07T13:09:55.792Z,10.60
2023-03-07T13:15:00.741Z,15.90
2023-03-07T13:17:32.159Z,10.60
2023-03-07T13:20:01.228Z,10.00
2023-03-07T13:22:29.333Z,17.00
2023-03-07T13:25:19.777Z,21.40
2023-03-07T13:27:59.277Z,9.50
2023-03-07T13:30:29.936Z,9.70
2023-03-07T13:33:04.350Z,12.50
2023-03-07T13:35:32.594Z,11.80
2023-03-07T13:38:38.603Z,9.90
2023-03-07T13:41:09.274Z,16.80
2023-03-07T13:46:29.664Z,11.10
2023-03-07T13:49:00.715Z,10.70
2023-03-07T13:51:29.988Z,14.20
2023-03-07T13:54:10.251Z,11.40
2023-03-07T13:56:42.627Z,13.50
2023-03-07T13:59:10.457Z,9.50
2023-03-07T14:02:04.676Z,11.30
2023-03-07T14:04:54.590Z,11.10
2023-03-07T14:07:34.915Z,9.40
2023-03-07T14:10:25.201Z,12.90
2023-03-07T14:13:11.700Z,9.00
2023-03-07T14:15:48.447Z,13.70
2023-03-07T14:18:26.110Z,8.70
2023-03-07T14:21:10.112Z,8.20
2023-03-07T14:23:53.279Z,19.50
2023-03-07T14:26:33.638Z,17.20
2023-03-07T14:29:24.694Z,10.20
2023-03-07T14:31:56.946Z,7.60
2023-03-07T14:34:25.202Z,9.80
2023-03-07T14:36:59.707Z,9.90
2023-03-07T14:39:59.073Z,8.20
2023-03-07T14:42:45.319Z,9.40
2023-03-07T14:45:28.860Z,8.90
2023-03-07T14:48:31.662Z,8.80
2023-03-07T14:51:13.433Z,8.90
2023-03-07T14:53:46.914Z,8.90
2023-03-07T14:56:23.173Z,7.10
2023-03-07T14:58:55.125Z,7.90
2023-03-07T15:01:23.266Z,7.00
2023-03-07T15:03:53.933Z,7.90
2023-03-07T15:08:52.594Z,12.10
2023-03-07T15:11:43.165Z,13.60
2023-03-07T15:14:28.371Z,9.90
2023-03-07T15:17:03.708Z,7.40
2023-03-07T15:20:00.411Z,10.90
2023-03-07T15:22:40.426Z,11.20
2023-03-07T15:25:25.642Z,10.20
2023-03-07T15:27:59.453Z,13.20
2023-03-07T15:30:31.471Z,8.00
2023-03-07T15:33:23.670Z,14.60
2023-03-07T15:36:12.993Z,12.40
2023-03-07T15:38:52.168Z,8.00
2023-03-07T15:41:36.724Z,8.50
2023-03-07T15:44:17.572Z,7.90
2023-03-07T15:46:48.573Z,8.80
2023-03-07T15:49:56.976Z,9.90
2023-03-07T15:52:33.795Z,11.20
2023-03-07T15:55:08.222Z,10.00
2023-03-07T15:57:47.997Z,8.80
2023-03-07T16:00:24.588Z,8.60
2023-03-07T16:02:54.028Z,13.80
2023-03-07T16:05:23.003Z,8.90
2023-03-07T16:07:53.040Z,14.70
2023-03-07T16:10:24.876Z,15.70
2023-03-07T16:12:53.164Z,12.00
2023-03-07T16:15:23.246Z,10.00
2023-03-07T16:17:56.846Z,11.20
2023-03-07T16:20:29.124Z,8.20
2023-03-07T16:22:57.361Z,10.50
2023-03-07T16:25:30.654Z,13.30
2023-03-07T16:27:59.354Z,12.60
2023-03-07T16:30:29.323Z,10.30
2023-03-07T16:32:57.442Z,12.50
2023-03-07T16:35:28.133Z,8.90
2023-03-07T16:40:26.166Z,13.00
2023-03-07T16:42:54.809Z,9.30
2023-03-07T16:45:26.829Z,9.80
2023-03-07T16:48:00.103Z,13.90
2023-03-07T16:50:31.828Z,12.50
2023-03-07T16:53:00.136Z,10.40
2023-03-07T16:55:28.830Z,9.30
2023-03-07T16:58:02.092Z,10.40
2023-03-07T17:00:30.770Z,9.50
2023-03-07T17:03:03.057Z,10.50
2023-03-07T17:05:31.322Z,11.50
2023-03-07T17:08:00.407Z,13.50
2023-03-07T17:10:29.490Z,8.90
2023-03-07T17:12:59.955Z,20.40
2023-03-07T17:18:00.705Z,8.50
2023-03-07T17:20:29.759Z,9.50
2023-03-07T17:22:57.702Z,8.70
2023-03-07T17:25:26.916Z,7.00
2023-03-07T17:28:00.526Z,14.60
2023-03-07T17:30:30.861Z,8.20
2023-03-07T17:32:59.364Z,7.30
2023-03-07T17:35:28.397Z,11.20
2023-03-07T17:37:56.807Z,8.40
2023-03-07T17:40:24.915Z,7.30
2023-03-07T17:42:54.814Z,10.50
2023-03-07T17:45:22.895Z,12.70
2023-03-07T17:47:54.812Z,11.70
2023-03-07T17:50:24.173Z,16.30
2023-03-07T17:52:55.817Z,7.90
2023-03-07T17:55:26.656Z,8.80
2023-03-07T17:57:54.860Z,10.70
2023-03-07T18:00:23.524Z,9.30
2023-03-07T18:02:52.044Z,11.80
2023-03-07T18:05:20.355Z,20.90
2023-03-07T18:07:51.551Z,24.90
2023-03-07T18:10:20.725Z,18.30
2023-03-07T18:12:50.828Z,47.70
2023-03-07T18:15:20.373Z,30.40
2023-03-07T18:17:50.346Z,36.70
2023-03-07T18:20:20.587Z,30.90
2023-03-07T18:22:48.885Z,24.70
2023-03-07T18:25:17.563Z,30.00
2023-03-07T18:27:46.664Z,22.70
2023-03-07T18:30:15.191Z,19.00
2023-03-07T18:32:43.439Z,30.50
2023-03-07T18:35:15.565Z,27.50
2023-03-07T18:37:45.227Z,33.90
2023-03-07T18:40:14.446Z,20.10
2023-03-07T18:42:42.797Z,37.00
2023-03-07T18:45:11.128Z,28.80
2023-03-07T18:47:39.086Z,31.30
2023-03-07T18:50:08.939Z,21.80
2023-03-07T18:52:36.898Z,23.50
2023-03-07T18:55:05.129Z,23.30
2023-03-07T18:57:33.060Z,22.20
2023-03-07T19:00:01.715Z,17.70
2023-03-07T19:02:29.997Z,18.50
2023-03-07T19:04:58.368Z,20.90
2023-03-07T19:07:28.585Z,19.90
2023-03-07T19:09:56.542Z,17.30
2023-03-07T19:12:25.010Z,17.40
2023-03-07T19:14:52.885Z,19.50
2023-03-07T19:17:25.630Z,19.90
2023-03-07T19:19:59.445Z,24.90
2023-03-07T19:22:29.690Z,21.50
2023-03-07T19:24:58.201Z,30.10
2023-03-07T19:27:28.046Z,21.90
2023-03-07T19:29:56.188Z,21.30
2023-03-07T19:32:24.611Z,25.50
2023-03-07T19:37:24.334Z,22.40
2023-03-07T19:39:53.308Z,26.10
2023-03-07T19:42:21.773Z,24.50
2023-03-07T19:44:49.735Z,23.90
2023-03-07T19:47:17.889Z,22.80
2023-03-07T19:49:48.047Z,23.70
2023-03-07T19:52:16.494Z,24.30
2023-03-07T19:54:45.558Z,18.50
2023-03-07T19:57:15.740Z,25.30
2023-03-07T19:59:43.754Z,23.40
2023-03-07T20:02:13.860Z,26.60
2023-03-07T20:04:41.739Z,27.00
2023-03-07T20:07:09.873Z,21.10
2023-03-07T20:09:37.947Z,33.40
2023-03-07T20:12:06.319Z,28.90
2023-03-07T20:14:34.581Z,26.40
2023-03-07T20:17:02.638Z,24.40
2023-03-07T20:19:30.798Z,26.10
2023-03-07T20:21:58.706Z,19.50
2023-03-07T20:24:27.166Z,24.00
2023-03-07T20:26:55.293Z,27.00
2023-03-07T20:29:23.421Z,37.60
2023-03-07T20:31:51.650Z,41.10
2023-03-07T20:34:20.760Z,40.20
2023-03-07T20:36:49.021Z,43.40
2023-03-07T20:39:17.387Z,34.00
2023-03-07T20:41:45.791Z,33.00
2023-03-07T20:44:15.355Z,27.10
2023-03-07T20:46:43.570Z,31.90
2023-03-07T20:49:14.063Z,59.60
2023-03-07T20:51:43.406Z,58.10
2023-03-07T20:54:14.618Z,32.70
2023-03-07T20:56:43.522Z,27.30
2023-03-07T20:59:15.370Z,22.00
2023-03-07T21:01:43.925Z,20.60
2023-03-07T21:04:15.188Z,20.80
2023-03-07T21:06:44.640Z,21.00
2023-03-07T21:09:15.160Z,23.90
2023-03-07T21:11:45.812Z,22.70
2023-03-07T21:14:15.150Z,31.60
2023-03-07T21:16:43.866Z,26.20
2023-03-07T21:19:12.887Z,24.60
2023-03-07T21:21:41.218Z,21.80
2023-03-07T21:24:12.249Z,18.90
2023-03-07T21:26:40.781Z,18.80
2023-03-07T21:29:10.689Z,20.20
2023-03-07T21:31:38.979Z,20.40
2023-03-07T21:34:10.921Z,27.20
2023-03-07T21:36:38.970Z,17.30
2023-03-07T21:39:09.748Z,24.70
2023-03-07T21:41:38.177Z,56.30
2023-03-07T21:44:06.209Z,40.00
2023-03-07T21:46:34.295Z,26.10
2023-03-07T21:49:02.773Z,31.80
2023-03-07T21:51:30.885Z,20.30
2023-03-07T21:53:59.480Z,18.10
2023-03-07T21:56:27.615Z,18.00
2023-03-07T21:58:55.492Z,19.00
2023-03-07T22:01:27.140Z,16.70
2023-03-07T22:03:58.621Z,17.90
2023-03-07T22:06:28.065Z,14.50
2023-03-07T22:08:56.213Z,13.50
2023-03-07T22:11:24.207Z,16.50
2023-03-07T22:13:52.101Z,13.50
2023-03-07T22:16:20.749Z,17.40
2023-03-07T22:18:57.796Z,16.20
2023-03-07T22:21:26.675Z,18.90
2023-03-07T22:24:01.470Z,17.60
2023-03-07T22:26:31.190Z,16.90
2023-03-07T22:29:00.144Z,20.20
2023-03-07T22:31:28.292Z,13.60
2023-03-07T22:33:58.959Z,18.40
2023-03-07T22:36:27.574Z,11.00
2023-03-07T22:38:56.261Z,14.00
2023-03-07T22:41:25.708Z,17.40
2023-03-07T22:43:54.180Z,11.60
2023-03-07T22:46:22.784Z,12.10
2023-03-07T22:48:55.960Z,17.50
2023-03-07T22:51:26.116Z,13.10
2023-03-07T22:53:54.761Z,17.70
2023-03-07T22:56:25.610Z,15.80
2023-03-07T22:58:54.319Z,17.10
2023-03-07T23:01:26.701Z,13.00
2023-03-07T23:03:56.590Z,12.60
2023-03-07T23:06:27.825Z,12.40
2023-03-07T23:08:59.873Z,15.10
2023-03-07T23:11:30.857Z,13.40
2023-03-07T23:13:59.300Z,8.80
2023-03-07T23:16:29.696Z,6.70
2023-03-07T23:18:59.763Z,6.10
2023-03-07T23:21:31.424Z,8.60
2023-03-07T23:24:01.447Z,8.50
2023-03-07T23:26:32.118Z,5.90
2023-03-07T23:31:37.643Z,6.60
2023-03-07T23:34:08.582Z,6.90
2023-03-07T23:36:36.581Z,7.30
2023-03-07T23:39:04.685Z,5.10
2023-03-07T23:41:32.593Z,5.80
2023-03-07T23:44:01.579Z,5.70
2023-03-07T23:46:30.190Z,6.50
2023-03-07T23:48:58.774Z,6.80
2023-03-07T23:51:27.269Z,5.40
2023-03-07T23:53:55.414Z,3.40
2023-03-07T23:56:23.545Z,3.40
2023-03-07T23:58:52.033Z,4.90
